Terminal Aerodrome Forecast
Issued by NWS Charleston, WV

Home | Current Version | Previous Version | Text Only | Print | Product List | Glossary On
Versions: 1 2 3 4 5 6 7 8 9 10 11 12 13 14 15 16 17 18 19 20 21 22
852
FTUS41 KRLX 110903 AAA
TAFBKW
TAF AMD
KBKW 110903Z 1109/1206 16008KT P6SM SCT150
     FM120100 16011G18KT P6SM BKN050=

USA.gov is the U.S. government's official web portal to all federal, state and local government web resources and services.